sensor_id;sensor_type;location;lat;lon;timestamp;P1;durP1;ratioP1;P2;durP2;ratioP2
27265;SDS011;14766;51.380;13.762;2023-06-24T00:00:56;9.10;;;6.18;;
27265;SDS011;14766;51.380;13.762;2023-06-24T00:03:23;7.13;;;5.65;;
27265;SDS011;14766;51.380;13.762;2023-06-24T00:05:51;7.07;;;5.68;;
27265;SDS011;14766;51.380;13.762;2023-06-24T00:08:20;8.20;;;6.20;;
27265;SDS011;14766;51.380;13.762;2023-06-24T00:10:48;12.05;;;5.95;;
27265;SDS011;14766;51.380;13.762;2023-06-24T00:13:17;8.13;;;5.97;;
27265;SDS011;14766;51.380;13.762;2023-06-24T00:15:44;8.43;;;6.03;;
27265;SDS011;14766;51.380;13.762;2023-06-24T00:18:11;9.18;;;6.18;;
27265;SDS011;14766;51.380;13.762;2023-06-24T00:20:38;6.78;;;5.97;;
27265;SDS011;14766;51.380;13.762;2023-06-24T00:23:09;9.77;;;6.40;;
27265;SDS011;14766;51.380;13.762;2023-06-24T00:25:41;10.85;;;6.07;;
27265;SDS011;14766;51.380;13.762;2023-06-24T00:28:09;8.13;;;6.38;;
27265;SDS011;14766;51.380;13.762;2023-06-24T00:30:36;8.27;;;6.38;;
27265;SDS011;14766;51.380;13.762;2023-06-24T00:33:03;9.50;;;6.47;;
27265;SDS011;14766;51.380;13.762;2023-06-24T00:35:30;10.77;;;6.55;;
27265;SDS011;14766;51.380;13.762;2023-06-24T00:37:57;7.47;;;6.30;;
27265;SDS011;14766;51.380;13.762;2023-06-24T00:40:26;8.05;;;6.88;;
27265;SDS011;14766;51.380;13.762;2023-06-24T00:42:53;9.57;;;6.43;;
27265;SDS011;14766;51.380;13.762;2023-06-24T00:45:22;8.80;;;6.82;;
27265;SDS011;14766;51.380;13.762;2023-06-24T00:47:49;8.30;;;6.70;;
27265;SDS011;14766;51.380;13.762;2023-06-24T00:50:22;10.57;;;6.70;;
27265;SDS011;14766;51.380;13.762;2023-06-24T00:52:52;9.75;;;6.78;;
27265;SDS011;14766;51.380;13.762;2023-06-24T00:55:19;9.38;;;7.50;;
27265;SDS011;14766;51.380;13.762;2023-06-24T00:57:48;8.63;;;6.63;;
27265;SDS011;14766;51.380;13.762;2023-06-24T01:00:18;9.15;;;6.93;;
27265;SDS011;14766;51.380;13.762;2023-06-24T01:02:48;8.65;;;7.60;;
27265;SDS011;14766;51.380;13.762;2023-06-24T01:05:16;9.35;;;6.90;;
27265;SDS011;14766;51.380;13.762;2023-06-24T01:07:43;11.50;;;7.70;;
27265;SDS011;14766;51.380;13.762;2023-06-24T01:10:22;9.75;;;7.15;;
27265;SDS011;14766;51.380;13.762;2023-06-24T01:12:50;10.13;;;7.78;;
27265;SDS011;14766;51.380;13.762;2023-06-24T01:15:18;11.48;;;7.30;;
27265;SDS011;14766;51.380;13.762;2023-06-24T01:20:43;8.93;;;7.25;;
27265;SDS011;14766;51.380;13.762;2023-06-24T01:34:34;10.30;;;7.80;;
27265;SDS011;14766;51.380;13.762;2023-06-24T01:40:40;12.57;;;8.18;;
27265;SDS011;14766;51.380;13.762;2023-06-24T01:43:13;9.32;;;8.35;;
27265;SDS011;14766;51.380;13.762;2023-06-24T01:45:45;10.45;;;9.02;;
27265;SDS011;14766;51.380;13.762;2023-06-24T01:48:25;11.98;;;8.45;;
27265;SDS011;14766;51.380;13.762;2023-06-24T01:51:03;11.80;;;8.65;;
27265;SDS011;14766;51.380;13.762;2023-06-24T01:53:39;10.93;;;8.55;;
27265;SDS011;14766;51.380;13.762;2023-06-24T01:56:11;12.93;;;9.23;;
27265;SDS011;14766;51.380;13.762;2023-06-24T01:58:40;13.82;;;8.88;;
27265;SDS011;14766;51.380;13.762;2023-06-24T02:01:10;12.32;;;8.95;;
27265;SDS011;14766;51.380;13.762;2023-06-24T02:03:40;14.13;;;9.93;;
27265;SDS011;14766;51.380;13.762;2023-06-24T02:06:09;12.30;;;9.27;;
27265;SDS011;14766;51.380;13.762;2023-06-24T02:11:46;10.75;;;8.98;;
27265;SDS011;14766;51.380;13.762;2023-06-24T02:14:14;9.52;;;8.30;;
27265;SDS011;14766;51.380;13.762;2023-06-24T02:16:43;11.95;;;9.02;;
27265;SDS011;14766;51.380;13.762;2023-06-24T02:19:13;11.10;;;8.90;;
27265;SDS011;14766;51.380;13.762;2023-06-24T02:21:46;12.27;;;9.25;;
27265;SDS011;14766;51.380;13.762;2023-06-24T02:24:14;13.25;;;9.15;;
27265;SDS011;14766;51.380;13.762;2023-06-24T02:26:41;12.65;;;9.93;;
27265;SDS011;14766;51.380;13.762;2023-06-24T02:29:09;12.90;;;10.07;;
27265;SDS011;14766;51.380;13.762;2023-06-24T02:31:39;12.02;;;9.02;;
27265;SDS011;14766;51.380;13.762;2023-06-24T02:34:06;13.77;;;9.18;;
27265;SDS011;14766;51.380;13.762;2023-06-24T02:36:35;14.32;;;10.20;;
27265;SDS011;14766;51.380;13.762;2023-06-24T02:39:02;13.10;;;9.70;;
27265;SDS011;14766;51.380;13.762;2023-06-24T02:41:29;13.27;;;10.00;;
27265;SDS011;14766;51.380;13.762;2023-06-24T02:43:56;14.13;;;10.13;;
27265;SDS011;14766;51.380;13.762;2023-06-24T02:46:23;13.02;;;9.95;;
27265;SDS011;14766;51.380;13.762;2023-06-24T02:48:56;13.70;;;10.38;;
27265;SDS011;14766;51.380;13.762;2023-06-24T02:51:25;11.95;;;9.95;;
27265;SDS011;14766;51.380;13.762;2023-06-24T02:53:53;14.27;;;10.55;;
27265;SDS011;14766;51.380;13.762;2023-06-24T02:56:33;11.15;;;9.80;;
27265;SDS011;14766;51.380;13.762;2023-06-24T02:59:09;13.98;;;10.15;;
27265;SDS011;14766;51.380;13.762;2023-06-24T03:01:37;14.75;;;9.98;;
27265;SDS011;14766;51.380;13.762;2023-06-24T03:04:06;12.75;;;10.38;;
27265;SDS011;14766;51.380;13.762;2023-06-24T03:06:34;13.32;;;10.85;;
27265;SDS011;14766;51.380;13.762;2023-06-24T03:09:04;12.52;;;9.80;;
27265;SDS011;14766;51.380;13.762;2023-06-24T03:11:31;19.88;;;11.07;;
27265;SDS011;14766;51.380;13.762;2023-06-24T03:14:07;14.98;;;10.57;;
27265;SDS011;14766;51.380;13.762;2023-06-24T03:16:39;13.73;;;10.88;;
27265;SDS011;14766;51.380;13.762;2023-06-24T03:19:12;12.95;;;10.27;;
27265;SDS011;14766;51.380;13.762;2023-06-24T03:21:41;17.02;;;11.18;;
27265;SDS011;14766;51.380;13.762;2023-06-24T03:24:14;14.25;;;11.07;;
27265;SDS011;14766;51.380;13.762;2023-06-24T03:26:44;15.88;;;11.82;;
27265;SDS011;14766;51.380;13.762;2023-06-24T03:29:14;16.65;;;12.52;;
27265;SDS011;14766;51.380;13.762;2023-06-24T03:31:51;18.23;;;12.57;;
27265;SDS011;14766;51.380;13.762;2023-06-24T03:34:22;14.38;;;11.98;;
27265;SDS011;14766;51.380;13.762;2023-06-24T03:36:52;20.13;;;12.05;;
27265;SDS011;14766;51.380;13.762;2023-06-24T03:39:22;17.58;;;12.90;;
27265;SDS011;14766;51.380;13.762;2023-06-24T03:41:50;18.05;;;12.88;;
27265;SDS011;14766;51.380;13.762;2023-06-24T03:44:17;19.45;;;12.85;;
27265;SDS011;14766;51.380;13.762;2023-06-24T03:46:45;15.23;;;12.48;;
27265;SDS011;14766;51.380;13.762;2023-06-24T03:49:13;17.63;;;13.02;;
27265;SDS011;14766;51.380;13.762;2023-06-24T03:51:41;22.35;;;12.98;;
27265;SDS011;14766;51.380;13.762;2023-06-24T03:54:09;16.17;;;12.32;;
27265;SDS011;14766;51.380;13.762;2023-06-24T03:56:37;18.20;;;13.20;;
27265;SDS011;14766;51.380;13.762;2023-06-24T03:59:05;16.00;;;12.32;;
27265;SDS011;14766;51.380;13.762;2023-06-24T04:01:33;20.13;;;13.27;;
27265;SDS011;14766;51.380;13.762;2023-06-24T04:04:00;17.17;;;12.48;;
27265;SDS011;14766;51.380;13.762;2023-06-24T04:06:27;19.40;;;13.45;;
27265;SDS011;14766;51.380;13.762;2023-06-24T04:08:54;19.67;;;13.98;;
27265;SDS011;14766;51.380;13.762;2023-06-24T04:11:22;17.58;;;13.32;;
27265;SDS011;14766;51.380;13.762;2023-06-24T04:13:49;18.95;;;13.13;;
27265;SDS011;14766;51.380;13.762;2023-06-24T04:16:16;23.73;;;13.50;;
27265;SDS011;14766;51.380;13.762;2023-06-24T04:18:43;20.38;;;14.52;;
27265;SDS011;14766;51.380;13.762;2023-06-24T04:21:10;21.15;;;14.20;;
27265;SDS011;14766;51.380;13.762;2023-06-24T04:23:37;22.73;;;14.45;;
27265;SDS011;14766;51.380;13.762;2023-06-24T04:26:05;19.75;;;13.85;;
27265;SDS011;14766;51.380;13.762;2023-06-24T04:28:32;20.95;;;14.88;;
27265;SDS011;14766;51.380;13.762;2023-06-24T04:31:00;21.45;;;15.20;;
27265;SDS011;14766;51.380;13.762;2023-06-24T04:33:27;21.10;;;16.27;;
27265;SDS011;14766;51.380;13.762;2023-06-24T04:35:55;22.85;;;15.65;;
27265;SDS011;14766;51.380;13.762;2023-06-24T04:38:24;19.05;;;14.48;;
27265;SDS011;14766;51.380;13.762;2023-06-24T04:40:52;20.67;;;15.32;;
27265;SDS011;14766;51.380;13.762;2023-06-24T04:43:20;18.00;;;14.52;;
27265;SDS011;14766;51.380;13.762;2023-06-24T04:45:48;17.05;;;13.80;;
27265;SDS011;14766;51.380;13.762;2023-06-24T04:48:16;21.95;;;14.82;;
27265;SDS011;14766;51.380;13.762;2023-06-24T04:50:44;19.90;;;15.15;;
27265;SDS011;14766;51.380;13.762;2023-06-24T04:53:11;21.73;;;15.57;;
27265;SDS011;14766;51.380;13.762;2023-06-24T04:55:39;20.65;;;14.50;;
27265;SDS011;14766;51.380;13.762;2023-06-24T04:58:07;18.55;;;15.13;;
27265;SDS011;14766;51.380;13.762;2023-06-24T05:00:34;19.30;;;15.32;;
27265;SDS011;14766;51.380;13.762;2023-06-24T05:03:02;20.05;;;14.60;;
27265;SDS011;14766;51.380;13.762;2023-06-24T05:05:29;20.85;;;14.60;;
27265;SDS011;14766;51.380;13.762;2023-06-24T05:08:00;18.73;;;13.68;;
27265;SDS011;14766;51.380;13.762;2023-06-24T05:10:28;24.00;;;15.27;;
27265;SDS011;14766;51.380;13.762;2023-06-24T05:12:56;18.88;;;14.05;;
27265;SDS011;14766;51.380;13.762;2023-06-24T05:15:24;18.95;;;13.82;;
27265;SDS011;14766;51.380;13.762;2023-06-24T05:17:51;20.50;;;14.45;;
27265;SDS011;14766;51.380;13.762;2023-06-24T05:20:19;21.02;;;14.35;;
27265;SDS011;14766;51.380;13.762;2023-06-24T05:22:48;15.45;;;13.02;;
27265;SDS011;14766;51.380;13.762;2023-06-24T05:25:16;21.08;;;14.48;;
27265;SDS011;14766;51.380;13.762;2023-06-24T05:27:43;18.88;;;14.40;;
27265;SDS011;14766;51.380;13.762;2023-06-24T05:30:11;17.45;;;14.05;;
27265;SDS011;14766;51.380;13.762;2023-06-24T05:32:39;18.23;;;13.95;;
27265;SDS011;14766;51.380;13.762;2023-06-24T05:35:08;18.88;;;14.15;;
27265;SDS011;14766;51.380;13.762;2023-06-24T05:37:36;21.38;;;15.98;;
27265;SDS011;14766;51.380;13.762;2023-06-24T05:40:04;22.17;;;16.05;;
27265;SDS011;14766;51.380;13.762;2023-06-24T05:42:33;19.98;;;14.20;;
27265;SDS011;14766;51.380;13.762;2023-06-24T05:45:00;17.40;;;13.63;;
27265;SDS011;14766;51.380;13.762;2023-06-24T05:47:27;19.35;;;14.52;;
27265;SDS011;14766;51.380;13.762;2023-06-24T05:49:55;20.40;;;15.23;;
27265;SDS011;14766;51.380;13.762;2023-06-24T05:52:22;21.30;;;15.27;;
27265;SDS011;14766;51.380;13.762;2023-06-24T05:54:49;22.88;;;16.25;;
27265;SDS011;14766;51.380;13.762;2023-06-24T05:57:16;21.65;;;16.40;;
27265;SDS011;14766;51.380;13.762;2023-06-24T05:59:43;20.50;;;15.48;;
27265;SDS011;14766;51.380;13.762;2023-06-24T06:02:11;21.90;;;15.77;;
27265;SDS011;14766;51.380;13.762;2023-06-24T06:04:38;21.70;;;15.77;;
27265;SDS011;14766;51.380;13.762;2023-06-24T06:07:05;20.95;;;16.02;;
27265;SDS011;14766;51.380;13.762;2023-06-24T06:09:32;21.55;;;15.85;;
27265;SDS011;14766;51.380;13.762;2023-06-24T06:12:00;20.17;;;15.07;;
27265;SDS011;14766;51.380;13.762;2023-06-24T06:14:27;24.77;;;16.98;;
27265;SDS011;14766;51.380;13.762;2023-06-24T06:16:54;21.35;;;15.60;;
27265;SDS011;14766;51.380;13.762;2023-06-24T06:19:21;20.95;;;15.60;;
27265;SDS011;14766;51.380;13.762;2023-06-24T06:21:49;22.13;;;15.82;;
27265;SDS011;14766;51.380;13.762;2023-06-24T06:24:17;20.42;;;15.60;;
27265;SDS011;14766;51.380;13.762;2023-06-24T06:26:45;21.90;;;15.50;;
27265;SDS011;14766;51.380;13.762;2023-06-24T06:29:13;18.67;;;14.90;;
27265;SDS011;14766;51.380;13.762;2023-06-24T06:31:41;24.90;;;16.67;;
27265;SDS011;14766;51.380;13.762;2023-06-24T06:34:08;22.63;;;16.35;;
27265;SDS011;14766;51.380;13.762;2023-06-24T06:36:36;19.92;;;15.70;;
27265;SDS011;14766;51.380;13.762;2023-06-24T06:39:03;21.95;;;15.63;;
27265;SDS011;14766;51.380;13.762;2023-06-24T06:41:30;22.27;;;15.75;;
27265;SDS011;14766;51.380;13.762;2023-06-24T06:43:58;21.08;;;16.48;;
27265;SDS011;14766;51.380;13.762;2023-06-24T06:46:25;23.25;;;16.08;;
27265;SDS011;14766;51.380;13.762;2023-06-24T06:48:52;26.98;;;17.33;;
27265;SDS011;14766;51.380;13.762;2023-06-24T06:51:19;28.23;;;17.85;;
27265;SDS011;14766;51.380;13.762;2023-06-24T06:53:48;23.65;;;17.80;;
27265;SDS011;14766;51.380;13.762;2023-06-24T06:56:19;25.77;;;18.77;;
27265;SDS011;14766;51.380;13.762;2023-06-24T06:58:53;24.73;;;18.13;;
27265;SDS011;14766;51.380;13.762;2023-06-24T07:01:20;19.45;;;16.08;;
27265;SDS011;14766;51.380;13.762;2023-06-24T07:03:48;22.30;;;16.63;;
27265;SDS011;14766;51.380;13.762;2023-06-24T07:06:18;19.73;;;15.82;;
27265;SDS011;14766;51.380;13.762;2023-06-24T07:08:46;19.33;;;16.58;;
27265;SDS011;14766;51.380;13.762;2023-06-24T07:11:13;23.00;;;17.65;;
27265;SDS011;14766;51.380;13.762;2023-06-24T07:13:40;22.38;;;16.98;;
27265;SDS011;14766;51.380;13.762;2023-06-24T07:16:08;22.15;;;16.33;;
27265;SDS011;14766;51.380;13.762;2023-06-24T07:18:35;19.95;;;15.77;;
27265;SDS011;14766;51.380;13.762;2023-06-24T07:21:02;19.92;;;15.13;;
27265;SDS011;14766;51.380;13.762;2023-06-24T07:23:30;19.60;;;14.77;;
27265;SDS011;14766;51.380;13.762;2023-06-24T07:25:58;19.23;;;13.57;;
27265;SDS011;14766;51.380;13.762;2023-06-24T07:28:29;14.60;;;12.40;;
27265;SDS011;14766;51.380;13.762;2023-06-24T07:30:56;13.63;;;12.13;;
27265;SDS011;14766;51.380;13.762;2023-06-24T07:33:23;15.68;;;11.52;;
27265;SDS011;14766;51.380;13.762;2023-06-24T07:35:51;13.45;;;11.75;;
27265;SDS011;14766;51.380;13.762;2023-06-24T07:38:18;15.02;;;12.98;;
27265;SDS011;14766;51.380;13.762;2023-06-24T07:40:45;15.68;;;12.40;;
27265;SDS011;14766;51.380;13.762;2023-06-24T07:43:13;16.60;;;13.02;;
27265;SDS011;14766;51.380;13.762;2023-06-24T07:45:41;15.75;;;13.63;;
27265;SDS011;14766;51.380;13.762;2023-06-24T07:48:08;17.60;;;14.57;;
27265;SDS011;14766;51.380;13.762;2023-06-24T07:50:35;18.30;;;14.27;;
27265;SDS011;14766;51.380;13.762;2023-06-24T07:53:03;14.80;;;13.13;;
27265;SDS011;14766;51.380;13.762;2023-06-24T07:55:30;15.07;;;13.43;;
27265;SDS011;14766;51.380;13.762;2023-06-24T07:57:57;16.63;;;12.55;;
27265;SDS011;14766;51.380;13.762;2023-06-24T08:00:25;17.30;;;12.88;;
27265;SDS011;14766;51.380;13.762;2023-06-24T08:02:52;15.13;;;13.25;;
27265;SDS011;14766;51.380;13.762;2023-06-24T08:05:20;17.58;;;13.98;;
27265;SDS011;14766;51.380;13.762;2023-06-24T08:07:47;15.30;;;12.75;;
27265;SDS011;14766;51.380;13.762;2023-06-24T08:10:14;13.93;;;11.85;;
27265;SDS011;14766;51.380;13.762;2023-06-24T08:12:41;15.90;;;12.77;;
27265;SDS011;14766;51.380;13.762;2023-06-24T08:15:09;17.40;;;12.95;;
27265;SDS011;14766;51.380;13.762;2023-06-24T08:17:36;14.85;;;12.02;;
27265;SDS011;14766;51.380;13.762;2023-06-24T08:20:03;16.45;;;12.35;;
27265;SDS011;14766;51.380;13.762;2023-06-24T08:22:32;14.13;;;12.10;;
27265;SDS011;14766;51.380;13.762;2023-06-24T08:24:59;13.88;;;12.38;;
27265;SDS011;14766;51.380;13.762;2023-06-24T08:27:26;14.10;;;12.02;;
27265;SDS011;14766;51.380;13.762;2023-06-24T08:29:55;14.48;;;11.95;;
27265;SDS011;14766;51.380;13.762;2023-06-24T08:32:22;16.27;;;12.15;;
27265;SDS011;14766;51.380;13.762;2023-06-24T08:34:50;14.82;;;12.20;;
27265;SDS011;14766;51.380;13.762;2023-06-24T08:37:17;15.07;;;12.38;;
27265;SDS011;14766;51.380;13.762;2023-06-24T08:39:44;14.85;;;13.15;;
27265;SDS011;14766;51.380;13.762;2023-06-24T08:42:11;15.38;;;13.35;;
27265;SDS011;14766;51.380;13.762;2023-06-24T08:44:38;13.15;;;11.45;;
27265;SDS011;14766;51.380;13.762;2023-06-24T08:47:06;18.50;;;12.13;;
27265;SDS011;14766;51.380;13.762;2023-06-24T08:49:34;16.23;;;12.55;;
27265;SDS011;14766;51.380;13.762;2023-06-24T08:52:14;16.17;;;11.98;;
27265;SDS011;14766;51.380;13.762;2023-06-24T08:54:45;14.35;;;11.93;;
27265;SDS011;14766;51.380;13.762;2023-06-24T08:57:13;12.32;;;10.68;;
27265;SDS011;14766;51.380;13.762;2023-06-24T08:59:41;12.23;;;10.82;;
27265;SDS011;14766;51.380;13.762;2023-06-24T09:02:09;13.30;;;10.68;;
27265;SDS011;14766;51.380;13.762;2023-06-24T09:04:38;14.75;;;11.93;;
27265;SDS011;14766;51.380;13.762;2023-06-24T09:07:05;12.52;;;11.13;;
27265;SDS011;14766;51.380;13.762;2023-06-24T09:09:41;10.55;;;9.45;;
27265;SDS011;14766;51.380;13.762;2023-06-24T09:12:13;14.63;;;11.40;;
27265;SDS011;14766;51.380;13.762;2023-06-24T09:14:47;13.10;;;11.13;;
27265;SDS011;14766;51.380;13.762;2023-06-24T09:17:15;13.27;;;10.70;;
27265;SDS011;14766;51.380;13.762;2023-06-24T09:19:45;11.88;;;10.02;;
27265;SDS011;14766;51.380;13.762;2023-06-24T09:22:13;12.68;;;10.60;;
27265;SDS011;14766;51.380;13.762;2023-06-24T09:24:46;13.20;;;10.00;;
27265;SDS011;14766;51.380;13.762;2023-06-24T09:27:14;11.35;;;9.80;;
27265;SDS011;14766;51.380;13.762;2023-06-24T09:29:46;12.27;;;9.40;;
27265;SDS011;14766;51.380;13.762;2023-06-24T09:32:13;13.00;;;9.65;;
27265;SDS011;14766;51.380;13.762;2023-06-24T09:34:41;11.88;;;9.25;;
27265;SDS011;14766;51.380;13.762;2023-06-24T09:37:10;10.65;;;8.77;;
27265;SDS011;14766;51.380;13.762;2023-06-24T09:39:40;8.43;;;7.57;;
27265;SDS011;14766;51.380;13.762;2023-06-24T09:42:07;10.02;;;8.15;;
27265;SDS011;14766;51.380;13.762;2023-06-24T09:44:34;8.80;;;7.65;;
27265;SDS011;14766;51.380;13.762;2023-06-24T09:47:02;10.07;;;8.18;;
27265;SDS011;14766;51.380;13.762;2023-06-24T09:49:30;10.80;;;7.80;;
27265;SDS011;14766;51.380;13.762;2023-06-24T09:51:59;10.27;;;7.28;;
27265;SDS011;14766;51.380;13.762;2023-06-24T09:54:28;8.80;;;6.97;;
27265;SDS011;14766;51.380;13.762;2023-06-24T09:57:01;7.75;;;6.50;;
27265;SDS011;14766;51.380;13.762;2023-06-24T09:59:30;8.82;;;6.85;;
27265;SDS011;14766;51.380;13.762;2023-06-24T10:02:02;9.60;;;6.70;;
27265;SDS011;14766;51.380;13.762;2023-06-24T10:04:31;6.97;;;5.88;;
27265;SDS011;14766;51.380;13.762;2023-06-24T10:06:58;7.22;;;5.22;;
27265;SDS011;14766;51.380;13.762;2023-06-24T10:09:26;9.30;;;5.57;;
27265;SDS011;14766;51.380;13.762;2023-06-24T10:11:53;8.13;;;5.90;;
27265;SDS011;14766;51.380;13.762;2023-06-24T10:14:21;6.10;;;5.40;;
27265;SDS011;14766;51.380;13.762;2023-06-24T10:16:49;6.20;;;5.60;;
27265;SDS011;14766;51.380;13.762;2023-06-24T10:19:19;7.30;;;5.60;;
27265;SDS011;14766;51.380;13.762;2023-06-24T10:21:59;6.53;;;5.82;;
27265;SDS011;14766;51.380;13.762;2023-06-24T10:24:37;5.97;;;5.10;;
27265;SDS011;14766;51.380;13.762;2023-06-24T10:27:07;7.68;;;5.72;;
27265;SDS011;14766;51.380;13.762;2023-06-24T10:29:37;11.73;;;6.47;;
27265;SDS011;14766;51.380;13.762;2023-06-24T10:32:09;7.13;;;6.07;;
27265;SDS011;14766;51.380;13.762;2023-06-24T10:37:07;5.43;;;4.93;;
27265;SDS011;14766;51.380;13.762;2023-06-24T10:42:56;7.03;;;5.25;;
27265;SDS011;14766;51.380;13.762;2023-06-24T10:47:36;6.68;;;4.80;;
27265;SDS011;14766;51.380;13.762;2023-06-24T10:50:06;7.90;;;5.57;;
27265;SDS011;14766;51.380;13.762;2023-06-24T10:52:41;5.78;;;5.20;;
27265;SDS011;14766;51.380;13.762;2023-06-24T10:55:13;6.78;;;5.22;;
27265;SDS011;14766;51.380;13.762;2023-06-24T10:57:44;5.50;;;4.68;;
27265;SDS011;14766;51.380;13.762;2023-06-24T11:00:14;5.35;;;4.85;;
27265;SDS011;14766;51.380;13.762;2023-06-24T11:02:42;5.95;;;4.57;;
27265;SDS011;14766;51.380;13.762;2023-06-24T11:05:11;6.13;;;5.10;;
27265;SDS011;14766;51.380;13.762;2023-06-24T11:07:40;5.30;;;4.80;;
27265;SDS011;14766;51.380;13.762;2023-06-24T11:10:10;6.82;;;5.03;;
27265;SDS011;14766;51.380;13.762;2023-06-24T11:12:41;4.85;;;4.35;;
27265;SDS011;14766;51.380;13.762;2023-06-24T11:15:10;4.60;;;4.20;;
27265;SDS011;14766;51.380;13.762;2023-06-24T11:17:38;5.95;;;4.97;;
27265;SDS011;14766;51.380;13.762;2023-06-24T11:20:12;5.22;;;4.40;;
27265;SDS011;14766;51.380;13.762;2023-06-24T11:22:41;5.13;;;4.63;;
27265;SDS011;14766;51.380;13.762;2023-06-24T11:25:15;4.90;;;4.45;;
27265;SDS011;14766;51.380;13.762;2023-06-24T11:27:51;5.00;;;4.50;;
27265;SDS011;14766;51.380;13.762;2023-06-24T11:30:20;4.78;;;4.30;;
27265;SDS011;14766;51.380;13.762;2023-06-24T11:32:47;4.65;;;4.25;;
27265;SDS011;14766;51.380;13.762;2023-06-24T11:35:15;4.93;;;4.45;;
27265;SDS011;14766;51.380;13.762;2023-06-24T11:37:46;5.13;;;4.47;;
27265;SDS011;14766;51.380;13.762;2023-06-24T11:40:16;4.32;;;3.92;;
27265;SDS011;14766;51.380;13.762;2023-06-24T11:42:46;6.78;;;5.25;;
27265;SDS011;14766;51.380;13.762;2023-06-24T11:45:14;6.38;;;4.95;;
27265;SDS011;14766;51.380;13.762;2023-06-24T11:47:47;5.53;;;4.65;;
27265;SDS011;14766;51.380;13.762;2023-06-24T11:50:15;5.20;;;4.70;;
27265;SDS011;14766;51.380;13.762;2023-06-24T11:52:44;6.85;;;4.70;;
27265;SDS011;14766;51.380;13.762;2023-06-24T11:55:17;5.00;;;4.50;;
27265;SDS011;14766;51.380;13.762;2023-06-24T12:00:27;5.20;;;4.57;;
27265;SDS011;14766;51.380;13.762;2023-06-24T12:03:01;5.93;;;5.32;;
27265;SDS011;14766;51.380;13.762;2023-06-24T12:05:37;5.05;;;4.55;;
27265;SDS011;14766;51.380;13.762;2023-06-24T12:08:13;5.75;;;4.70;;
27265;SDS011;14766;51.380;13.762;2023-06-24T12:10:45;5.38;;;4.63;;
27265;SDS011;14766;51.380;13.762;2023-06-24T12:13:15;5.05;;;4.55;;
27265;SDS011;14766;51.380;13.762;2023-06-24T12:15:42;4.85;;;4.30;;
27265;SDS011;14766;51.380;13.762;2023-06-24T12:18:10;5.15;;;4.47;;
27265;SDS011;14766;51.380;13.762;2023-06-24T12:20:39;5.07;;;4.55;;
27265;SDS011;14766;51.380;13.762;2023-06-24T12:23:07;4.57;;;4.13;;
27265;SDS011;14766;51.380;13.762;2023-06-24T12:25:34;5.85;;;4.75;;
27265;SDS011;14766;51.380;13.762;2023-06-24T12:28:02;5.35;;;4.80;;
27265;SDS011;14766;51.380;13.762;2023-06-24T12:30:29;5.03;;;4.32;;
27265;SDS011;14766;51.380;13.762;2023-06-24T12:32:56;4.82;;;4.10;;
27265;SDS011;14766;51.380;13.762;2023-06-24T12:35:24;4.88;;;3.92;;
27265;SDS011;14766;51.380;13.762;2023-06-24T12:37:55;5.75;;;4.20;;
27265;SDS011;14766;51.380;13.762;2023-06-24T12:40:23;4.30;;;3.90;;
27265;SDS011;14766;51.380;13.762;2023-06-24T12:42:51;4.22;;;3.78;;
27265;SDS011;14766;51.380;13.762;2023-06-24T12:45:19;5.65;;;4.07;;
27265;SDS011;14766;51.380;13.762;2023-06-24T12:47:46;4.65;;;4.20;;
27265;SDS011;14766;51.380;13.762;2023-06-24T12:50:13;3.95;;;3.58;;
27265;SDS011;14766;51.380;13.762;2023-06-24T12:52:41;4.68;;;4.18;;
27265;SDS011;14766;51.380;13.762;2023-06-24T12:55:08;4.18;;;3.70;;
27265;SDS011;14766;51.380;13.762;2023-06-24T12:57:35;4.13;;;3.55;;
27265;SDS011;14766;51.380;13.762;2023-06-24T13:00:04;4.20;;;3.80;;
27265;SDS011;14766;51.380;13.762;2023-06-24T13:02:32;4.05;;;3.65;;
27265;SDS011;14766;51.380;13.762;2023-06-24T13:05:00;4.22;;;3.75;;
27265;SDS011;14766;51.380;13.762;2023-06-24T13:07:29;4.55;;;3.80;;
27265;SDS011;14766;51.380;13.762;2023-06-24T13:09:57;4.10;;;3.78;;
27265;SDS011;14766;51.380;13.762;2023-06-24T13:12:26;4.05;;;3.33;;
27265;SDS011;14766;51.380;13.762;2023-06-24T13:14:53;4.03;;;3.63;;
27265;SDS011;14766;51.380;13.762;2023-06-24T13:17:20;4.38;;;3.80;;
27265;SDS011;14766;51.380;13.762;2023-06-24T13:19:47;4.85;;;3.70;;
27265;SDS011;14766;51.380;13.762;2023-06-24T13:22:14;3.88;;;3.50;;
27265;SDS011;14766;51.380;13.762;2023-06-24T13:24:41;5.22;;;3.90;;
27265;SDS011;14766;51.380;13.762;2023-06-24T13:27:09;4.03;;;3.63;;
27265;SDS011;14766;51.380;13.762;2023-06-24T13:29:36;3.42;;;3.15;;
27265;SDS011;14766;51.380;13.762;2023-06-24T13:32:05;3.92;;;3.40;;
27265;SDS011;14766;51.380;13.762;2023-06-24T13:34:32;3.50;;;3.20;;
27265;SDS011;14766;51.380;13.762;2023-06-24T13:36:59;4.13;;;3.63;;
27265;SDS011;14766;51.380;13.762;2023-06-24T13:39:26;4.82;;;3.53;;
27265;SDS011;14766;51.380;13.762;2023-06-24T13:41:55;5.15;;;3.72;;
27265;SDS011;14766;51.380;13.762;2023-06-24T13:44:23;4.80;;;4.00;;
27265;SDS011;14766;51.380;13.762;2023-06-24T13:46:50;4.50;;;3.53;;
27265;SDS011;14766;51.380;13.762;2023-06-24T13:49:20;4.28;;;3.88;;
27265;SDS011;14766;51.380;13.762;2023-06-24T13:51:47;4.20;;;3.80;;
27265;SDS011;14766;51.380;13.762;2023-06-24T13:54:14;3.88;;;3.47;;
27265;SDS011;14766;51.380;13.762;2023-06-24T13:56:42;4.18;;;3.60;;
27265;SDS011;14766;51.380;13.762;2023-06-24T13:59:09;4.00;;;3.53;;
27265;SDS011;14766;51.380;13.762;2023-06-24T14:01:37;4.50;;;3.78;;
27265;SDS011;14766;51.380;13.762;2023-06-24T14:04:04;5.00;;;3.50;;
27265;SDS011;14766;51.380;13.762;2023-06-24T14:06:32;3.58;;;3.28;;
27265;SDS011;14766;51.380;13.762;2023-06-24T14:09:00;3.38;;;3.08;;
27265;SDS011;14766;51.380;13.762;2023-06-24T14:11:29;3.60;;;3.30;;
27265;SDS011;14766;51.380;13.762;2023-06-24T14:13:59;3.35;;;3.05;;
27265;SDS011;14766;51.380;13.762;2023-06-24T14:16:27;5.93;;;3.20;;
27265;SDS011;14766;51.380;13.762;2023-06-24T14:18:54;3.53;;;3.22;;
27265;SDS011;14766;51.380;13.762;2023-06-24T14:21:22;3.80;;;3.15;;
27265;SDS011;14766;51.380;13.762;2023-06-24T14:23:49;4.00;;;3.05;;
27265;SDS011;14766;51.380;13.762;2023-06-24T14:26:20;3.60;;;3.30;;
27265;SDS011;14766;51.380;13.762;2023-06-24T14:28:47;3.70;;;3.30;;
27265;SDS011;14766;51.380;13.762;2023-06-24T14:31:15;3.60;;;3.05;;
27265;SDS011;14766;51.380;13.762;2023-06-24T14:33:42;4.15;;;3.40;;
27265;SDS011;14766;51.380;13.762;2023-06-24T14:36:09;4.78;;;3.72;;
27265;SDS011;14766;51.380;13.762;2023-06-24T14:38:36;4.45;;;3.42;;
27265;SDS011;14766;51.380;13.762;2023-06-24T14:41:04;4.28;;;3.53;;
27265;SDS011;14766;51.380;13.762;2023-06-24T14:43:31;3.47;;;3.17;;
27265;SDS011;14766;51.380;13.762;2023-06-24T14:45:58;4.72;;;3.67;;
27265;SDS011;14766;51.380;13.762;2023-06-24T14:48:25;4.72;;;3.63;;
27265;SDS011;14766;51.380;13.762;2023-06-24T14:50:53;4.45;;;3.58;;
27265;SDS011;14766;51.380;13.762;2023-06-24T14:53:20;3.60;;;3.30;;
27265;SDS011;14766;51.380;13.762;2023-06-24T14:55:47;3.70;;;3.40;;
27265;SDS011;14766;51.380;13.762;2023-06-24T14:58:14;3.70;;;3.38;;
27265;SDS011;14766;51.380;13.762;2023-06-24T15:00:45;4.20;;;3.53;;